createdAt,value
2018-03-25T00:00:27.633Z,18.05
2018-03-25T00:02:54.402Z,21.30
2018-03-25T00:05:21.234Z,20.50
2018-03-25T00:07:48.029Z,21.35
2018-03-25T00:10:14.788Z,18.83
2018-03-25T00:12:41.585Z,20.65
2018-03-25T00:15:08.443Z,20.73
2018-03-25T00:17:35.348Z,21.75
2018-03-25T00:20:02.216Z,20.88
2018-03-25T00:22:29.033Z,21.33
2018-03-25T00:24:55.830Z,22.83
2018-03-25T00:27:22.644Z,22.98
2018-03-25T00:29:49.418Z,24.58
2018-03-25T00:32:16.240Z,22.70
2018-03-25T00:34:42.996Z,21.62
2018-03-25T00:37:09.779Z,23.33
2018-03-25T00:39:36.567Z,21.70
2018-03-25T00:42:03.461Z,22.65
2018-03-25T00:44:30.285Z,23.73
2018-03-25T00:46:57.025Z,22.23
2018-03-25T00:49:23.790Z,24.48
2018-03-25T00:51:50.598Z,23.45
2018-03-25T00:54:17.364Z,21.80
2018-03-25T00:56:44.116Z,22.40
2018-03-25T00:59:10.864Z,22.70
2018-03-25T01:01:37.646Z,24.00
2018-03-25T01:04:04.370Z,24.37
2018-03-25T01:06:31.156Z,23.98
2018-03-25T01:08:57.921Z,23.15
2018-03-25T01:11:24.743Z,23.02
2018-03-25T01:13:51.515Z,24.37
2018-03-25T01:16:18.406Z,24.33
2018-03-25T01:18:45.127Z,26.52
2018-03-25T01:21:12.062Z,24.05
2018-03-25T01:23:38.824Z,25.60
2018-03-25T01:26:05.565Z,23.08
2018-03-25T01:28:32.413Z,23.45
2018-03-25T01:30:59.284Z,25.17
2018-03-25T01:33:26.135Z,23.60
2018-03-25T01:35:53.022Z,25.10
2018-03-25T01:38:19.895Z,24.75
2018-03-25T01:40:46.699Z,26.62
2018-03-25T01:43:13.561Z,25.15
2018-03-25T01:45:40.358Z,25.67
2018-03-25T01:48:07.148Z,24.45
2018-03-25T01:50:33.979Z,24.83
2018-03-25T01:53:00.734Z,24.30
2018-03-25T01:55:27.590Z,23.55
2018-03-25T01:57:54.442Z,23.27
2018-03-25T02:00:21.211Z,24.58
2018-03-25T02:02:47.956Z,24.30
2018-03-25T02:05:14.738Z,24.10
2018-03-25T02:07:41.502Z,26.77
2018-03-25T02:10:08.385Z,26.67
2018-03-25T02:12:35.171Z,25.65
2018-03-25T02:15:01.947Z,25.08
2018-03-25T02:17:28.682Z,26.05
2018-03-25T02:19:55.531Z,27.75
2018-03-25T02:22:22.278Z,29.12
2018-03-25T02:24:49.036Z,27.80
2018-03-25T02:27:15.847Z,27.80
2018-03-25T02:29:42.590Z,29.33
2018-03-25T02:32:09.410Z,28.87
2018-03-25T02:34:36.197Z,28.33
2018-03-25T02:37:02.995Z,27.95
2018-03-25T02:39:29.786Z,27.05
2018-03-25T02:41:56.566Z,26.95
2018-03-25T02:44:23.318Z,26.55
2018-03-25T02:46:50.177Z,25.58
2018-03-25T02:49:16.991Z,26.77
2018-03-25T02:51:43.874Z,27.27
2018-03-25T02:54:10.688Z,26.77
2018-03-25T02:56:37.464Z,26.85
2018-03-25T02:59:04.302Z,28.15
2018-03-25T03:01:31.077Z,26.85
2018-03-25T03:03:57.909Z,27.85
2018-03-25T03:06:24.808Z,27.58
2018-03-25T03:08:51.606Z,29.58
2018-03-25T03:11:18.453Z,27.13
2018-03-25T03:13:45.279Z,30.05
2018-03-25T03:16:12.022Z,27.30
2018-03-25T03:18:38.818Z,26.67
2018-03-25T03:21:05.546Z,27.67
2018-03-25T03:23:32.307Z,26.42
2018-03-25T03:25:59.068Z,26.98
2018-03-25T03:28:25.880Z,29.05
2018-03-25T03:30:52.696Z,28.38
2018-03-25T03:33:19.511Z,26.70
2018-03-25T03:35:46.266Z,29.45
2018-03-25T03:38:12.997Z,28.05
2018-03-25T03:40:39.720Z,29.40
2018-03-25T03:43:06.563Z,30.15
2018-03-25T03:45:33.313Z,26.85
2018-03-25T03:48:00.097Z,27.95
2018-03-25T03:50:26.878Z,28.85
2018-03-25T03:52:53.654Z,27.23
2018-03-25T03:55:20.399Z,30.52
2018-03-25T03:57:47.222Z,27.23
2018-03-25T04:00:14.012Z,26.83
2018-03-25T04:02:40.761Z,29.25
2018-03-25T04:05:07.537Z,28.65
2018-03-25T04:07:34.269Z,27.80
2018-03-25T04:10:01.119Z,30.75
2018-03-25T04:12:27.943Z,30.88
2018-03-25T04:14:54.718Z,30.17
2018-03-25T04:17:21.484Z,31.10
2018-03-25T04:19:48.294Z,28.80
2018-03-25T04:22:15.064Z,28.45
2018-03-25T04:24:41.857Z,30.50
2018-03-25T04:27:08.662Z,30.50
2018-03-25T04:29:35.433Z,29.05
2018-03-25T04:32:02.214Z,29.80
2018-03-25T04:34:28.979Z,27.27
2018-03-25T04:36:55.766Z,29.33
2018-03-25T04:39:22.548Z,31.52
2018-03-25T04:41:49.325Z,30.20
2018-03-25T04:44:16.097Z,29.95
2018-03-25T04:46:42.824Z,29.37
2018-03-25T04:49:09.609Z,30.60
2018-03-25T04:51:36.489Z,29.80
2018-03-25T04:54:03.950Z,29.60
2018-03-25T04:56:30.765Z,31.15
2018-03-25T04:58:57.496Z,31.90
2018-03-25T05:01:24.257Z,29.63
2018-03-25T05:03:50.948Z,29.58
2018-03-25T05:06:17.665Z,31.02
2018-03-25T05:08:44.344Z,32.60
2018-03-25T05:11:11.037Z,32.38
2018-03-25T05:13:37.779Z,28.05
2018-03-25T05:16:04.460Z,30.15
2018-03-25T05:18:31.155Z,31.58
2018-03-25T05:20:57.833Z,30.05
2018-03-25T05:23:24.523Z,29.75
2018-03-25T05:25:51.209Z,31.62
2018-03-25T05:28:17.909Z,30.05
2018-03-25T05:30:44.600Z,31.67
2018-03-25T05:33:11.290Z,32.17
2018-03-25T05:35:37.973Z,33.47
2018-03-25T05:38:04.660Z,33.08
2018-03-25T05:40:31.362Z,32.63
2018-03-25T05:42:58.049Z,33.45
2018-03-25T05:45:24.742Z,31.95
2018-03-25T05:47:51.425Z,31.80
2018-03-25T05:50:18.177Z,29.95
2018-03-25T05:52:44.870Z,32.05
2018-03-25T05:55:11.545Z,32.25
2018-03-25T05:57:38.233Z,31.80
2018-03-25T06:00:04.921Z,35.47
2018-03-25T06:02:31.616Z,31.73
2018-03-25T06:04:58.312Z,33.35
2018-03-25T06:07:25.030Z,30.85
2018-03-25T06:09:51.719Z,32.08
2018-03-25T06:12:18.446Z,34.00
2018-03-25T06:14:45.133Z,31.00
2018-03-25T06:17:11.813Z,31.58
2018-03-25T06:19:38.516Z,32.53
2018-03-25T06:22:05.226Z,32.38
2018-03-25T06:24:31.951Z,32.50
2018-03-25T06:26:58.685Z,34.95
2018-03-25T06:29:25.381Z,35.33
2018-03-25T06:31:52.066Z,33.63
2018-03-25T06:34:18.773Z,31.48
2018-03-25T06:36:45.475Z,34.03
2018-03-25T06:39:12.173Z,33.40
2018-03-25T06:41:38.893Z,34.78
2018-03-25T06:44:05.590Z,35.95
2018-03-25T06:46:35.059Z,33.67
2018-03-25T06:49:01.749Z,31.95
2018-03-25T06:51:28.442Z,34.92
2018-03-25T06:53:55.152Z,35.88
2018-03-25T06:56:22.569Z,35.13
2018-03-25T06:58:49.295Z,31.05
2018-03-25T07:01:15.993Z,32.92
2018-03-25T07:03:42.712Z,33.50
2018-03-25T07:06:10.270Z,36.08
2018-03-25T07:08:37.090Z,37.30
2018-03-25T07:11:03.778Z,34.47
2018-03-25T07:13:30.466Z,35.40
2018-03-25T07:15:57.213Z,36.72
2018-03-25T07:18:23.897Z,36.22
2018-03-25T07:20:50.615Z,32.80
2018-03-25T07:23:17.296Z,35.42
2018-03-25T07:25:44.027Z,36.17
2018-03-25T07:28:10.753Z,34.90
2018-03-25T07:30:37.523Z,37.95
2018-03-25T07:33:04.909Z,38.08
2018-03-25T07:35:31.668Z,35.55
2018-03-25T07:37:58.425Z,36.38
2018-03-25T07:40:25.913Z,36.70
2018-03-25T07:42:52.648Z,35.80
2018-03-25T07:45:19.963Z,36.70
2018-03-25T07:47:46.696Z,37.42
2018-03-25T07:50:13.411Z,36.45
2018-03-25T07:52:40.111Z,38.92
2018-03-25T07:55:06.802Z,37.65
2018-03-25T07:57:33.488Z,38.50
2018-03-25T08:00:01.084Z,36.25
2018-03-25T08:02:27.768Z,36.10
2018-03-25T08:04:55.069Z,35.72
2018-03-25T08:07:21.800Z,37.88
2018-03-25T08:09:48.501Z,37.63
2018-03-25T08:12:15.197Z,39.05
2018-03-25T08:14:41.899Z,36.03
2018-03-25T08:17:08.671Z,37.10
2018-03-25T08:19:36.149Z,37.60
2018-03-25T08:22:02.886Z,36.60
2018-03-25T08:24:29.582Z,35.78
2018-03-25T08:26:56.288Z,38.22
2018-03-25T08:29:23.045Z,39.33
2018-03-25T08:31:49.733Z,39.17
2018-03-25T08:34:17.061Z,39.72
2018-03-25T08:36:43.771Z,41.88
2018-03-25T08:39:10.469Z,38.60
2018-03-25T08:41:37.160Z,37.83
2018-03-25T08:44:05.579Z,39.88
2018-03-25T08:46:32.290Z,39.40
2018-03-25T08:49:00.214Z,39.25
2018-03-25T08:51:26.900Z,39.45
2018-03-25T08:53:53.617Z,40.12
2018-03-25T08:56:20.320Z,38.42
2018-03-25T08:58:47.804Z,38.53
2018-03-25T09:01:15.384Z,39.33
2018-03-25T09:03:42.075Z,40.97
2018-03-25T09:06:10.541Z,41.03
2018-03-25T09:08:37.277Z,39.70
2018-03-25T09:11:04.006Z,40.88
2018-03-25T09:13:30.728Z,38.50
2018-03-25T09:15:57.418Z,39.50
2018-03-25T09:18:24.138Z,39.03
2018-03-25T09:20:50.864Z,40.88
2018-03-25T09:23:17.581Z,40.08
2018-03-25T09:25:44.331Z,38.47
2018-03-25T09:28:12.048Z,39.95
2018-03-25T09:30:38.970Z,40.30
2018-03-25T09:33:05.672Z,40.95
2018-03-25T09:35:32.424Z,37.83
2018-03-25T09:37:59.203Z,38.88
2018-03-25T09:40:26.401Z,38.72
2018-03-25T09:42:55.037Z,38.30
2018-03-25T09:45:21.731Z,36.47
2018-03-25T09:47:49.908Z,34.60
2018-03-25T09:50:16.593Z,36.03
2018-03-25T09:52:43.287Z,36.40
2018-03-25T09:55:10.792Z,37.40
2018-03-25T09:57:37.482Z,36.40
2018-03-25T10:00:04.224Z,35.00
2018-03-25T10:02:46.570Z,34.50
2018-03-25T10:05:13.276Z,34.37
2018-03-25T10:07:39.995Z,34.03
2018-03-25T10:10:07.386Z,33.30
2018-03-25T10:12:35.376Z,32.90
2018-03-25T10:15:02.072Z,32.73
2018-03-25T10:17:28.766Z,30.70
2018-03-25T10:19:55.495Z,31.73
2018-03-25T10:22:22.247Z,31.30
2018-03-25T10:24:49.675Z,31.50
2018-03-25T10:27:16.550Z,32.33
2018-03-25T10:29:43.895Z,30.73
2018-03-25T10:32:10.651Z,28.70
2018-03-25T10:34:37.381Z,28.10
2018-03-25T10:37:04.086Z,27.93
2018-03-25T10:39:33.318Z,29.53
2018-03-25T10:42:00.023Z,27.90
2018-03-25T10:44:27.438Z,27.30
2018-03-25T10:46:54.147Z,25.00
2018-03-25T10:49:20.968Z,24.20
2018-03-25T10:51:47.736Z,24.70
2018-03-25T10:54:14.435Z,23.90
2018-03-25T10:56:41.148Z,25.10
2018-03-25T10:59:08.709Z,24.73
2018-03-25T11:01:35.441Z,19.70
2018-03-25T11:04:02.152Z,23.67
2018-03-25T11:06:28.906Z,21.40
2018-03-25T11:08:55.668Z,21.17
2018-03-25T11:11:22.360Z,22.37
2018-03-25T11:13:49.212Z,22.47
2018-03-25T11:16:15.934Z,23.10
2018-03-25T11:18:43.273Z,22.20
2018-03-25T11:21:10.143Z,24.50
2018-03-25T11:23:37.181Z,23.10
2018-03-25T11:26:04.408Z,24.90
2018-03-25T11:28:31.329Z,21.97
2018-03-25T11:31:01.166Z,24.57
2018-03-25T11:33:29.731Z,23.40
2018-03-25T11:35:56.446Z,23.70
2018-03-25T11:38:23.160Z,23.20
2018-03-25T11:40:50.380Z,22.70
2018-03-25T11:43:17.071Z,25.10
2018-03-25T11:45:43.761Z,24.00
2018-03-25T11:48:10.454Z,23.23
2018-03-25T11:50:37.202Z,24.27
2018-03-25T11:53:03.895Z,26.70
2018-03-25T11:55:30.605Z,24.10
2018-03-25T11:57:59.243Z,24.85
2018-03-25T12:00:25.984Z,24.80
2018-03-25T12:02:52.688Z,23.60
2018-03-25T12:05:19.404Z,24.83
2018-03-25T12:07:46.117Z,25.23
2018-03-25T12:10:12.853Z,25.83
2018-03-25T12:12:39.568Z,25.62
2018-03-25T12:15:06.329Z,25.62
2018-03-25T12:17:33.033Z,25.25
2018-03-25T12:19:59.852Z,26.98
2018-03-25T12:22:26.643Z,27.33
2018-03-25T12:24:53.367Z,26.50
2018-03-25T12:27:22.141Z,25.88
2018-03-25T12:29:49.407Z,26.73
2018-03-25T12:32:16.261Z,26.48
2018-03-25T12:34:43.098Z,24.77
2018-03-25T12:37:10.782Z,24.77
2018-03-25T12:39:37.515Z,27.20
2018-03-25T12:42:04.385Z,25.88
2018-03-25T12:44:32.991Z,25.83
2018-03-25T12:47:00.604Z,25.88
2018-03-25T12:49:27.323Z,27.15
2018-03-25T12:51:54.813Z,26.40
2018-03-25T12:54:22.233Z,25.20
2018-03-25T12:56:49.018Z,26.15
2018-03-25T12:59:15.803Z,27.05
2018-03-25T13:01:43.460Z,24.83
2018-03-25T13:04:10.849Z,26.52
2018-03-25T13:06:37.652Z,27.52
2018-03-25T13:09:04.885Z,25.92
2018-03-25T13:11:31.631Z,26.02
2018-03-25T13:14:00.093Z,25.30
2018-03-25T13:16:26.887Z,26.80
2018-03-25T13:18:54.582Z,27.27
2018-03-25T13:21:22.049Z,25.42
2018-03-25T13:23:48.878Z,25.10
2018-03-25T13:26:16.566Z,25.83
2018-03-25T13:28:43.379Z,26.25
2018-03-25T13:31:10.202Z,23.67
2018-03-25T13:33:37.789Z,23.73
2018-03-25T13:36:04.566Z,24.55
2018-03-25T13:38:31.357Z,24.12
2018-03-25T13:40:58.195Z,25.55
2018-03-25T13:43:24.922Z,24.70
2018-03-25T13:45:52.644Z,25.20
2018-03-25T13:48:19.427Z,26.62
2018-03-25T13:50:46.127Z,26.35
2018-03-25T13:53:12.845Z,25.52
2018-03-25T13:55:39.551Z,25.75
2018-03-25T13:58:06.525Z,24.20
2018-03-25T14:00:41.293Z,23.70
2018-03-25T14:03:08.007Z,24.45
2018-03-25T14:05:34.743Z,23.95
2018-03-25T14:08:01.451Z,25.12
2018-03-25T14:10:28.184Z,25.10
2018-03-25T14:12:55.701Z,23.85
2018-03-25T14:15:22.418Z,20.52
2018-03-25T14:17:49.933Z,21.40
2018-03-25T14:20:17.839Z,18.75
2018-03-25T14:22:44.585Z,18.40
2018-03-25T14:25:11.695Z,20.20
2018-03-25T14:27:38.388Z,18.23
2018-03-25T14:30:05.137Z,20.50
2018-03-25T14:32:31.856Z,18.30
2018-03-25T14:34:58.554Z,19.30
2018-03-25T14:37:25.246Z,19.10
2018-03-25T14:39:51.936Z,20.25
2018-03-25T14:42:18.624Z,19.33
2018-03-25T14:44:46.112Z,17.95
2018-03-25T14:47:12.800Z,19.17
2018-03-25T14:49:39.514Z,18.45
2018-03-25T14:52:06.218Z,20.00
2018-03-25T14:54:33.867Z,18.40
2018-03-25T14:57:00.570Z,18.20
2018-03-25T14:59:28.585Z,17.95
2018-03-25T15:01:55.352Z,15.88
2018-03-25T15:04:22.021Z,18.55
2018-03-25T15:06:49.609Z,17.60
2018-03-25T15:09:16.297Z,16.05
2018-03-25T15:11:43.704Z,16.90
2018-03-25T15:14:10.434Z,18.50
2018-03-25T15:16:38.067Z,17.12
2018-03-25T15:19:04.768Z,17.05
2018-03-25T15:21:31.499Z,16.70
2018-03-25T15:24:00.981Z,16.65
2018-03-25T15:26:27.681Z,16.08
2018-03-25T15:28:54.511Z,19.83
2018-03-25T15:31:21.310Z,17.37
2018-03-25T15:33:48.051Z,17.65
2018-03-25T15:36:14.764Z,17.52
2018-03-25T15:38:41.458Z,16.05
2018-03-25T15:41:08.189Z,17.73
2018-03-25T15:43:34.894Z,17.40
2018-03-25T15:46:01.654Z,18.77
2018-03-25T15:48:28.373Z,17.50
2018-03-25T15:50:55.178Z,18.25
2018-03-25T15:53:22.750Z,16.27
2018-03-25T15:55:50.722Z,17.55
2018-03-25T15:58:17.476Z,16.90
2018-03-25T16:00:44.750Z,17.58
2018-03-25T16:03:11.440Z,17.62
2018-03-25T16:05:39.828Z,18.67
2018-03-25T16:08:07.015Z,18.48
2018-03-25T16:10:33.761Z,16.65
2018-03-25T16:13:00.464Z,18.35
2018-03-25T16:15:29.102Z,17.25
2018-03-25T16:17:55.796Z,17.58
2018-03-25T16:20:23.425Z,19.10
2018-03-25T16:22:50.129Z,17.75
2018-03-25T16:25:16.847Z,18.75
2018-03-25T16:27:43.586Z,17.83
2018-03-25T16:30:11.020Z,18.87
2018-03-25T16:32:38.625Z,17.20
2018-03-25T16:35:05.308Z,18.20
2018-03-25T16:37:32.034Z,17.25
2018-03-25T16:39:58.765Z,18.70
2018-03-25T16:42:26.352Z,17.87
2018-03-25T16:44:53.056Z,18.87
2018-03-25T16:47:19.755Z,19.70
2018-03-25T16:49:46.483Z,18.12
2018-03-25T16:52:13.176Z,18.17
2018-03-25T16:54:39.877Z,17.98
2018-03-25T16:57:06.612Z,17.15
2018-03-25T16:59:33.874Z,19.62
2018-03-25T17:02:00.654Z,19.65
2018-03-25T17:04:27.337Z,18.27
2018-03-25T17:06:56.140Z,18.30
2018-03-25T17:09:22.837Z,20.10
2018-03-25T17:11:49.526Z,18.85
2018-03-25T17:14:16.220Z,18.60
2018-03-25T17:16:42.908Z,18.40
2018-03-25T17:19:09.616Z,19.50
2018-03-25T17:21:37.297Z,18.67
2018-03-25T17:24:05.442Z,18.15
2018-03-25T17:26:32.183Z,17.75
2018-03-25T17:28:59.646Z,18.00
2018-03-25T17:31:26.362Z,17.55
2018-03-25T17:33:53.292Z,19.00
2018-03-25T17:36:20.000Z,18.90
2018-03-25T17:38:46.673Z,18.33
2018-03-25T17:41:13.426Z,19.40
2018-03-25T17:43:40.181Z,19.27
2018-03-25T17:46:06.899Z,19.90
2018-03-25T17:48:33.597Z,18.48
2018-03-25T17:51:00.369Z,17.10
2018-03-25T17:53:27.065Z,21.10
2018-03-25T17:55:53.790Z,19.33
2018-03-25T17:58:20.489Z,20.88
2018-03-25T18:00:47.222Z,17.92
2018-03-25T18:03:13.927Z,19.87
2018-03-25T18:05:41.246Z,20.70
2018-03-25T18:08:08.051Z,19.92
2018-03-25T18:10:34.766Z,20.20
2018-03-25T18:13:01.563Z,20.90
2018-03-25T18:15:28.269Z,17.70
2018-03-25T18:17:54.958Z,19.12
2018-03-25T18:20:21.701Z,19.02
2018-03-25T18:22:48.414Z,20.60
2018-03-25T18:25:15.123Z,18.10
2018-03-25T18:27:42.378Z,19.02
2018-03-25T18:30:09.105Z,18.05
2018-03-25T18:32:36.716Z,19.80
2018-03-25T18:35:03.482Z,22.85
2018-03-25T18:37:30.269Z,19.60
2018-03-25T18:39:57.008Z,21.23
2018-03-25T18:42:24.129Z,20.55
2018-03-25T18:44:50.841Z,20.52
2018-03-25T18:47:17.525Z,19.35
2018-03-25T18:49:44.225Z,19.33
2018-03-25T18:52:10.941Z,19.80
2018-03-25T18:54:37.628Z,19.62
2018-03-25T18:57:04.315Z,18.77
2018-03-25T18:59:31.932Z,18.92
2018-03-25T19:01:58.642Z,19.83
2018-03-25T19:04:25.341Z,17.08
2018-03-25T19:06:52.037Z,19.42
2018-03-25T19:09:18.776Z,20.05
2018-03-25T19:11:45.513Z,20.80
2018-03-25T19:14:12.214Z,18.08
2018-03-25T19:16:39.170Z,18.25
2018-03-25T19:19:05.866Z,20.77
2018-03-25T19:21:32.553Z,19.58
2018-03-25T19:23:59.262Z,19.75
2018-03-25T19:26:25.968Z,18.80
2018-03-25T19:28:52.695Z,19.37
2018-03-25T19:31:19.402Z,19.90
2018-03-25T19:33:46.119Z,22.55
2018-03-25T19:36:12.825Z,22.10
2018-03-25T19:38:39.510Z,21.02
2018-03-25T19:41:06.200Z,19.48
2018-03-25T19:43:33.432Z,20.25
2018-03-25T19:46:01.343Z,20.17
2018-03-25T19:48:28.045Z,19.35
2018-03-25T19:50:54.748Z,19.23
2018-03-25T19:53:21.451Z,19.48
2018-03-25T19:55:48.149Z,17.40
2018-03-25T19:58:14.891Z,17.30
2018-03-25T20:00:41.580Z,20.90
2018-03-25T20:03:08.282Z,19.65
2018-03-25T20:05:35.014Z,20.35
2018-03-25T20:08:01.741Z,19.15
2018-03-25T20:10:28.441Z,20.60
2018-03-25T20:12:55.122Z,19.70
2018-03-25T20:15:21.889Z,19.92
2018-03-25T20:17:48.587Z,19.55
2018-03-25T20:20:15.288Z,20.90
2018-03-25T20:22:41.981Z,21.52
2018-03-25T20:25:08.689Z,21.17
2018-03-25T20:27:35.418Z,21.50
2018-03-25T20:30:02.108Z,20.88
2018-03-25T20:32:28.794Z,20.90
2018-03-25T20:34:55.505Z,21.00
2018-03-25T20:37:22.214Z,20.88
2018-03-25T20:39:48.923Z,20.73
2018-03-25T20:42:15.669Z,22.30
2018-03-25T20:44:42.384Z,22.05
2018-03-25T20:47:09.127Z,22.83
2018-03-25T20:49:35.813Z,21.67
2018-03-25T20:52:02.530Z,21.37
2018-03-25T20:54:29.333Z,21.00
2018-03-25T20:56:56.032Z,20.40
2018-03-25T20:59:22.733Z,21.92
2018-03-25T21:01:49.443Z,22.98
2018-03-25T21:04:16.170Z,20.85
2018-03-25T21:06:42.869Z,24.33
2018-03-25T21:09:09.590Z,21.50
2018-03-25T21:11:36.304Z,21.33
2018-03-25T21:14:03.027Z,22.13
2018-03-25T21:16:29.730Z,21.52
2018-03-25T21:18:56.495Z,20.85
2018-03-25T21:21:23.222Z,21.98
2018-03-25T21:23:49.905Z,22.40
2018-03-25T21:26:16.608Z,22.83
2018-03-25T21:28:43.308Z,23.45
2018-03-25T21:31:10.078Z,22.05
2018-03-25T21:33:36.728Z,22.23
2018-03-25T21:36:03.428Z,23.10
2018-03-25T21:38:30.157Z,20.90
2018-03-25T21:40:56.843Z,22.90
2018-03-25T21:43:23.533Z,22.42
2018-03-25T21:45:50.251Z,23.83
2018-03-25T21:48:16.985Z,22.30
2018-03-25T21:50:43.701Z,21.62
2018-03-25T21:53:10.426Z,21.80
2018-03-25T21:55:37.113Z,21.67
2018-03-25T21:58:03.843Z,20.75
2018-03-25T22:00:30.535Z,23.42
2018-03-25T22:03:07.272Z,23.45
2018-03-25T22:05:35.891Z,22.50
2018-03-25T22:08:02.604Z,23.45
2018-03-25T22:10:34.154Z,22.52
2018-03-25T22:13:01.949Z,22.58
2018-03-25T22:15:29.341Z,22.95
2018-03-25T22:18:05.534Z,22.37
2018-03-25T22:20:32.228Z,24.05
2018-03-25T22:22:58.951Z,24.98
2018-03-25T22:25:25.662Z,23.55
2018-03-25T22:27:52.358Z,25.00
2018-03-25T22:30:19.109Z,25.95
2018-03-25T22:32:46.413Z,25.17
2018-03-25T22:35:12.555Z,25.62
2018-03-25T22:37:39.242Z,26.67
2018-03-25T22:40:05.944Z,24.75
2018-03-25T22:42:32.676Z,23.08
2018-03-25T22:44:59.402Z,25.40
2018-03-25T22:47:26.165Z,24.52
2018-03-25T22:49:52.903Z,24.45
2018-03-25T22:52:19.717Z,25.17
2018-03-25T22:54:47.330Z,23.67
2018-03-25T22:57:14.107Z,26.50
2018-03-25T22:59:40.897Z,26.33
2018-03-25T23:02:07.694Z,25.98
2018-03-25T23:04:34.452Z,26.20
2018-03-25T23:07:01.188Z,24.80
2018-03-25T23:09:27.941Z,24.67
2018-03-25T23:11:54.656Z,25.27
2018-03-25T23:14:21.405Z,23.83
2018-03-25T23:16:48.148Z,24.10
2018-03-25T23:19:14.963Z,23.33
2018-03-25T23:21:41.730Z,25.02
2018-03-25T23:24:08.468Z,25.30
2018-03-25T23:26:35.210Z,23.50
2018-03-25T23:29:01.937Z,24.08
2018-03-25T23:34:01.927Z,23.75
2018-03-25T23:36:28.678Z,24.10
2018-03-25T23:38:55.499Z,22.55
2018-03-25T23:41:22.282Z,23.83
2018-03-25T23:43:49.064Z,24.30
2018-03-25T23:46:15.800Z,24.08
2018-03-25T23:48:42.518Z,24.75
2018-03-25T23:51:09.275Z,26.00
2018-03-25T23:53:36.065Z,23.17
2018-03-25T23:56:02.902Z,25.20
2018-03-25T23:58:29.652Z,24.33
